sensor_id;sensor_type;location;lat;lon;timestamp;P1;durP1;ratioP1;P2;durP2;ratioP2
16442;SDS011;8331;51.654;14.376;2023-02-12T00:02:20;23.00;;;15.20;;
16442;SDS011;8331;51.654;14.376;2023-02-12T00:04:47;24.63;;;14.03;;
16442;SDS011;8331;51.654;14.376;2023-02-12T00:07:13;19.00;;;13.40;;
16442;SDS011;8331;51.654;14.376;2023-02-12T00:09:40;21.40;;;14.50;;
16442;SDS011;8331;51.654;14.376;2023-02-12T00:12:06;21.93;;;13.73;;
16442;SDS011;8331;51.654;14.376;2023-02-12T00:14:33;23.43;;;14.07;;
16442;SDS011;8331;51.654;14.376;2023-02-12T00:17:00;22.97;;;13.93;;
16442;SDS011;8331;51.654;14.376;2023-02-12T00:19:26;19.63;;;14.00;;
16442;SDS011;8331;51.654;14.376;2023-02-12T00:21:53;20.93;;;13.67;;
16442;SDS011;8331;51.654;14.376;2023-02-12T00:24:19;21.03;;;13.60;;
16442;SDS011;8331;51.654;14.376;2023-02-12T00:26:46;22.20;;;14.23;;
16442;SDS011;8331;51.654;14.376;2023-02-12T00:29:13;18.60;;;13.27;;
16442;SDS011;8331;51.654;14.376;2023-02-12T00:31:40;19.23;;;14.77;;
16442;SDS011;8331;51.654;14.376;2023-02-12T00:34:08;20.07;;;13.87;;
16442;SDS011;8331;51.654;14.376;2023-02-12T00:36:35;19.60;;;14.27;;
16442;SDS011;8331;51.654;14.376;2023-02-12T00:39:02;24.63;;;15.30;;
16442;SDS011;8331;51.654;14.376;2023-02-12T00:41:29;25.03;;;16.10;;
16442;SDS011;8331;51.654;14.376;2023-02-12T00:43:56;20.03;;;13.40;;
16442;SDS011;8331;51.654;14.376;2023-02-12T00:46:22;22.10;;;14.07;;
16442;SDS011;8331;51.654;14.376;2023-02-12T00:48:49;25.37;;;15.63;;
16442;SDS011;8331;51.654;14.376;2023-02-12T00:51:18;21.20;;;13.93;;
16442;SDS011;8331;51.654;14.376;2023-02-12T00:53:45;23.20;;;14.30;;
16442;SDS011;8331;51.654;14.376;2023-02-12T00:56:11;22.03;;;14.83;;
16442;SDS011;8331;51.654;14.376;2023-02-12T00:58:38;20.57;;;14.47;;
16442;SDS011;8331;51.654;14.376;2023-02-12T01:01:05;19.00;;;14.30;;
16442;SDS011;8331;51.654;14.376;2023-02-12T01:03:33;22.90;;;15.10;;
16442;SDS011;8331;51.654;14.376;2023-02-12T01:06:00;24.10;;;14.47;;
16442;SDS011;8331;51.654;14.376;2023-02-12T01:08:27;20.20;;;13.40;;
16442;SDS011;8331;51.654;14.376;2023-02-12T01:10:57;23.23;;;14.23;;
16442;SDS011;8331;51.654;14.376;2023-02-12T01:13:24;19.47;;;13.57;;
16442;SDS011;8331;51.654;14.376;2023-02-12T01:18:48;20.73;;;13.80;;
16442;SDS011;8331;51.654;14.376;2023-02-12T01:21:19;20.17;;;13.97;;
16442;SDS011;8331;51.654;14.376;2023-02-12T01:23:46;20.90;;;13.97;;
16442;SDS011;8331;51.654;14.376;2023-02-12T01:26:13;23.33;;;13.67;;
16442;SDS011;8331;51.654;14.376;2023-02-12T01:28:41;21.83;;;14.97;;
16442;SDS011;8331;51.654;14.376;2023-02-12T01:31:08;20.53;;;12.83;;
16442;SDS011;8331;51.654;14.376;2023-02-12T01:33:35;16.60;;;12.63;;
16442;SDS011;8331;51.654;14.376;2023-02-12T01:36:02;19.10;;;12.97;;
16442;SDS011;8331;51.654;14.376;2023-02-12T01:38:29;20.37;;;13.23;;
16442;SDS011;8331;51.654;14.376;2023-02-12T01:46:54;22.03;;;12.10;;
16442;SDS011;8331;51.654;14.376;2023-02-12T01:49:32;17.90;;;12.00;;
16442;SDS011;8331;51.654;14.376;2023-02-12T01:52:03;23.60;;;12.87;;
16442;SDS011;8331;51.654;14.376;2023-02-12T01:54:30;22.50;;;12.07;;
16442;SDS011;8331;51.654;14.376;2023-02-12T01:56:59;18.57;;;11.53;;
16442;SDS011;8331;51.654;14.376;2023-02-12T01:59:27;16.70;;;11.00;;
16442;SDS011;8331;51.654;14.376;2023-02-12T02:01:54;18.90;;;11.97;;
16442;SDS011;8331;51.654;14.376;2023-02-12T02:04:23;18.03;;;11.97;;
16442;SDS011;8331;51.654;14.376;2023-02-12T02:06:58;16.43;;;10.93;;
16442;SDS011;8331;51.654;14.376;2023-02-12T02:09:25;16.57;;;11.87;;
16442;SDS011;8331;51.654;14.376;2023-02-12T02:11:53;16.90;;;10.90;;
16442;SDS011;8331;51.654;14.376;2023-02-12T02:14:38;20.80;;;11.37;;
16442;SDS011;8331;51.654;14.376;2023-02-12T02:19:46;17.80;;;11.10;;
16442;SDS011;8331;51.654;14.376;2023-02-12T02:23:00;17.37;;;10.47;;
16442;SDS011;8331;51.654;14.376;2023-02-12T02:36:16;17.40;;;10.43;;
16442;SDS011;8331;51.654;14.376;2023-02-12T02:38:56;15.73;;;10.93;;
16442;SDS011;8331;51.654;14.376;2023-02-12T02:41:30;17.03;;;10.13;;
16442;SDS011;8331;51.654;14.376;2023-02-12T02:43:59;17.07;;;10.00;;
16442;SDS011;8331;51.654;14.376;2023-02-12T02:46:30;19.57;;;11.47;;
16442;SDS011;8331;51.654;14.376;2023-02-12T02:49:07;21.67;;;9.83;;
16442;SDS011;8331;51.654;14.376;2023-02-12T02:51:37;17.93;;;10.23;;
16442;SDS011;8331;51.654;14.376;2023-02-12T02:54:09;17.73;;;11.10;;
16442;SDS011;8331;51.654;14.376;2023-02-12T02:56:38;16.70;;;10.67;;
16442;SDS011;8331;51.654;14.376;2023-02-12T02:59:08;18.30;;;10.90;;
16442;SDS011;8331;51.654;14.376;2023-02-12T03:01:43;17.93;;;10.00;;
16442;SDS011;8331;51.654;14.376;2023-02-12T03:04:17;19.13;;;10.23;;
16442;SDS011;8331;51.654;14.376;2023-02-12T03:06:49;16.20;;;9.67;;
16442;SDS011;8331;51.654;14.376;2023-02-12T03:09:25;19.17;;;9.97;;
16442;SDS011;8331;51.654;14.376;2023-02-12T03:11:54;14.57;;;9.40;;
16442;SDS011;8331;51.654;14.376;2023-02-12T03:14:24;14.93;;;9.20;;
16442;SDS011;8331;51.654;14.376;2023-02-12T03:17:14;15.17;;;9.03;;
16442;SDS011;8331;51.654;14.376;2023-02-12T03:19:40;16.03;;;9.20;;
16442;SDS011;8331;51.654;14.376;2023-02-12T03:22:08;18.40;;;10.00;;
16442;SDS011;8331;51.654;14.376;2023-02-12T03:24:38;17.63;;;9.83;;
16442;SDS011;8331;51.654;14.376;2023-02-12T03:27:09;13.13;;;9.17;;
16442;SDS011;8331;51.654;14.376;2023-02-12T03:29:38;22.50;;;11.37;;
16442;SDS011;8331;51.654;14.376;2023-02-12T03:32:22;16.87;;;10.10;;
16442;SDS011;8331;51.654;14.376;2023-02-12T03:34:52;16.27;;;10.10;;
16442;SDS011;8331;51.654;14.376;2023-02-12T03:37:21;12.13;;;8.93;;
16442;SDS011;8331;51.654;14.376;2023-02-12T03:44:59;13.57;;;8.40;;
16442;SDS011;8331;51.654;14.376;2023-02-12T03:50:08;15.57;;;9.47;;
16442;SDS011;8331;51.654;14.376;2023-02-12T03:52:37;11.33;;;7.90;;
16442;SDS011;8331;51.654;14.376;2023-02-12T03:55:04;14.17;;;8.77;;
16442;SDS011;8331;51.654;14.376;2023-02-12T03:57:32;13.60;;;8.90;;
16442;SDS011;8331;51.654;14.376;2023-02-12T04:00:02;21.03;;;10.23;;
16442;SDS011;8331;51.654;14.376;2023-02-12T04:02:39;17.87;;;8.50;;
16442;SDS011;8331;51.654;14.376;2023-02-12T04:05:07;11.27;;;8.70;;
16442;SDS011;8331;51.654;14.376;2023-02-12T04:07:34;14.23;;;8.33;;
16442;SDS011;8331;51.654;14.376;2023-02-12T04:10:01;15.57;;;9.33;;
16442;SDS011;8331;51.654;14.376;2023-02-12T04:12:33;14.07;;;8.30;;
16442;SDS011;8331;51.654;14.376;2023-02-12T04:30:40;13.63;;;8.47;;
16442;SDS011;8331;51.654;14.376;2023-02-12T04:33:09;10.37;;;7.30;;
16442;SDS011;8331;51.654;14.376;2023-02-12T04:35:42;13.90;;;7.93;;
16442;SDS011;8331;51.654;14.376;2023-02-12T04:38:10;14.67;;;8.10;;
16442;SDS011;8331;51.654;14.376;2023-02-12T04:40:38;13.63;;;7.77;;
16442;SDS011;8331;51.654;14.376;2023-02-12T04:43:06;12.27;;;8.30;;
16442;SDS011;8331;51.654;14.376;2023-02-12T04:45:33;15.57;;;7.97;;
16442;SDS011;8331;51.654;14.376;2023-02-12T04:48:01;11.00;;;7.80;;
16442;SDS011;8331;51.654;14.376;2023-02-12T04:50:31;10.90;;;7.97;;
16442;SDS011;8331;51.654;14.376;2023-02-12T04:53:02;11.23;;;7.13;;
16442;SDS011;8331;51.654;14.376;2023-02-12T04:55:29;9.67;;;6.57;;
16442;SDS011;8331;51.654;14.376;2023-02-12T04:57:56;14.20;;;7.63;;
16442;SDS011;8331;51.654;14.376;2023-02-12T05:00:22;10.33;;;6.73;;
16442;SDS011;8331;51.654;14.376;2023-02-12T05:02:49;11.77;;;7.43;;
16442;SDS011;8331;51.654;14.376;2023-02-12T05:05:15;12.67;;;7.17;;
16442;SDS011;8331;51.654;14.376;2023-02-12T05:07:42;11.30;;;6.83;;
16442;SDS011;8331;51.654;14.376;2023-02-12T05:10:08;12.97;;;7.57;;
16442;SDS011;8331;51.654;14.376;2023-02-12T05:12:35;11.53;;;7.13;;
16442;SDS011;8331;51.654;14.376;2023-02-12T05:15:02;8.90;;;6.13;;
16442;SDS011;8331;51.654;14.376;2023-02-12T05:17:28;7.93;;;6.50;;
16442;SDS011;8331;51.654;14.376;2023-02-12T05:19:55;14.40;;;7.13;;
16442;SDS011;8331;51.654;14.376;2023-02-12T05:22:21;8.87;;;6.53;;
16442;SDS011;8331;51.654;14.376;2023-02-12T05:24:48;10.60;;;7.00;;
16442;SDS011;8331;51.654;14.376;2023-02-12T05:27:15;9.53;;;6.30;;
16442;SDS011;8331;51.654;14.376;2023-02-12T05:29:41;6.17;;;5.57;;
16442;SDS011;8331;51.654;14.376;2023-02-12T05:32:08;6.67;;;5.57;;
16442;SDS011;8331;51.654;14.376;2023-02-12T05:34:35;8.00;;;5.90;;
16442;SDS011;8331;51.654;14.376;2023-02-12T05:37:01;7.50;;;5.93;;
16442;SDS011;8331;51.654;14.376;2023-02-12T05:39:28;7.60;;;6.10;;
16442;SDS011;8331;51.654;14.376;2023-02-12T05:41:54;12.37;;;6.67;;
16442;SDS011;8331;51.654;14.376;2023-02-12T05:44:21;8.93;;;6.20;;
16442;SDS011;8331;51.654;14.376;2023-02-12T05:46:47;8.77;;;6.27;;
16442;SDS011;8331;51.654;14.376;2023-02-12T05:49:14;8.17;;;5.67;;
16442;SDS011;8331;51.654;14.376;2023-02-12T05:51:41;9.77;;;6.27;;
16442;SDS011;8331;51.654;14.376;2023-02-12T05:54:08;9.40;;;6.30;;
16442;SDS011;8331;51.654;14.376;2023-02-12T05:56:36;8.93;;;5.33;;
16442;SDS011;8331;51.654;14.376;2023-02-12T05:59:05;8.67;;;5.87;;
16442;SDS011;8331;51.654;14.376;2023-02-12T06:01:36;8.90;;;5.60;;
16442;SDS011;8331;51.654;14.376;2023-02-12T06:04:04;6.10;;;5.60;;
16442;SDS011;8331;51.654;14.376;2023-02-12T06:06:31;9.90;;;6.10;;
16442;SDS011;8331;51.654;14.376;2023-02-12T06:08:59;7.27;;;5.30;;
16442;SDS011;8331;51.654;14.376;2023-02-12T06:11:26;5.40;;;4.90;;
16442;SDS011;8331;51.654;14.376;2023-02-12T06:13:52;5.63;;;5.00;;
16442;SDS011;8331;51.654;14.376;2023-02-12T06:16:20;9.33;;;5.90;;
16442;SDS011;8331;51.654;14.376;2023-02-12T06:18:48;8.20;;;5.53;;
16442;SDS011;8331;51.654;14.376;2023-02-12T06:21:15;7.47;;;5.23;;
16442;SDS011;8331;51.654;14.376;2023-02-12T06:23:42;8.70;;;5.47;;
16442;SDS011;8331;51.654;14.376;2023-02-12T06:26:09;8.07;;;5.40;;
16442;SDS011;8331;51.654;14.376;2023-02-12T06:28:35;6.50;;;5.37;;
16442;SDS011;8331;51.654;14.376;2023-02-12T06:31:02;8.03;;;5.33;;
16442;SDS011;8331;51.654;14.376;2023-02-12T06:33:29;9.60;;;5.60;;
16442;SDS011;8331;51.654;14.376;2023-02-12T06:35:55;7.73;;;5.50;;
16442;SDS011;8331;51.654;14.376;2023-02-12T06:38:23;8.37;;;5.67;;
16442;SDS011;8331;51.654;14.376;2023-02-12T06:40:49;8.43;;;5.20;;
16442;SDS011;8331;51.654;14.376;2023-02-12T06:43:16;8.47;;;5.80;;
16442;SDS011;8331;51.654;14.376;2023-02-12T06:45:42;6.50;;;4.80;;
16442;SDS011;8331;51.654;14.376;2023-02-12T06:48:09;6.07;;;5.00;;
16442;SDS011;8331;51.654;14.376;2023-02-12T06:50:36;7.37;;;5.17;;
16442;SDS011;8331;51.654;14.376;2023-02-12T06:53:03;9.67;;;5.30;;
16442;SDS011;8331;51.654;14.376;2023-02-12T06:55:29;8.07;;;5.17;;
16442;SDS011;8331;51.654;14.376;2023-02-12T06:57:56;13.23;;;6.10;;
16442;SDS011;8331;51.654;14.376;2023-02-12T07:00:22;9.73;;;6.00;;
16442;SDS011;8331;51.654;14.376;2023-02-12T07:02:53;8.20;;;5.40;;
16442;SDS011;8331;51.654;14.376;2023-02-12T07:05:20;9.57;;;5.77;;
16442;SDS011;8331;51.654;14.376;2023-02-12T07:07:46;10.00;;;5.13;;
16442;SDS011;8331;51.654;14.376;2023-02-12T07:10:13;8.27;;;6.00;;
16442;SDS011;8331;51.654;14.376;2023-02-12T07:12:39;8.87;;;6.23;;
16442;SDS011;8331;51.654;14.376;2023-02-12T07:15:06;10.50;;;5.63;;
16442;SDS011;8331;51.654;14.376;2023-02-12T07:17:33;7.40;;;6.03;;
16442;SDS011;8331;51.654;14.376;2023-02-12T07:19:59;9.60;;;6.03;;
16442;SDS011;8331;51.654;14.376;2023-02-12T07:22:26;9.77;;;5.97;;
16442;SDS011;8331;51.654;14.376;2023-02-12T07:24:52;7.03;;;5.47;;
16442;SDS011;8331;51.654;14.376;2023-02-12T07:27:19;10.80;;;6.17;;
16442;SDS011;8331;51.654;14.376;2023-02-12T07:29:45;6.60;;;5.93;;
16442;SDS011;8331;51.654;14.376;2023-02-12T07:32:12;11.67;;;6.00;;
16442;SDS011;8331;51.654;14.376;2023-02-12T07:34:39;9.47;;;6.07;;
16442;SDS011;8331;51.654;14.376;2023-02-12T07:37:05;8.83;;;5.73;;
16442;SDS011;8331;51.654;14.376;2023-02-12T07:39:32;9.53;;;5.90;;
16442;SDS011;8331;51.654;14.376;2023-02-12T07:41:59;11.13;;;6.37;;
16442;SDS011;8331;51.654;14.376;2023-02-12T07:44:25;9.43;;;6.70;;
16442;SDS011;8331;51.654;14.376;2023-02-12T07:46:52;11.50;;;6.80;;
16442;SDS011;8331;51.654;14.376;2023-02-12T07:49:21;11.80;;;7.47;;
16442;SDS011;8331;51.654;14.376;2023-02-12T07:51:49;10.67;;;6.63;;
16442;SDS011;8331;51.654;14.376;2023-02-12T07:54:15;12.37;;;7.30;;
16442;SDS011;8331;51.654;14.376;2023-02-12T07:56:42;13.77;;;7.27;;
16442;SDS011;8331;51.654;14.376;2023-02-12T07:59:13;8.30;;;6.77;;
16442;SDS011;8331;51.654;14.376;2023-02-12T08:01:44;13.90;;;7.90;;
16442;SDS011;8331;51.654;14.376;2023-02-12T08:04:12;12.07;;;6.87;;
16442;SDS011;8331;51.654;14.376;2023-02-12T08:06:40;13.63;;;7.03;;
16442;SDS011;8331;51.654;14.376;2023-02-12T08:09:10;11.57;;;6.97;;
16442;SDS011;8331;51.654;14.376;2023-02-12T08:11:37;19.73;;;8.60;;
16442;SDS011;8331;51.654;14.376;2023-02-12T08:14:04;19.97;;;8.47;;
16442;SDS011;8331;51.654;14.376;2023-02-12T08:16:34;14.07;;;7.73;;
16442;SDS011;8331;51.654;14.376;2023-02-12T08:19:01;14.33;;;8.07;;
16442;SDS011;8331;51.654;14.376;2023-02-12T08:21:43;13.67;;;7.33;;
16442;SDS011;8331;51.654;14.376;2023-02-12T08:24:09;18.43;;;8.00;;
16442;SDS011;8331;51.654;14.376;2023-02-12T08:26:38;15.77;;;8.20;;
16442;SDS011;8331;51.654;14.376;2023-02-12T08:29:09;20.60;;;8.53;;
16442;SDS011;8331;51.654;14.376;2023-02-12T08:31:37;14.17;;;7.73;;
16442;SDS011;8331;51.654;14.376;2023-02-12T08:34:04;21.73;;;8.27;;
16442;SDS011;8331;51.654;14.376;2023-02-12T08:36:37;17.63;;;7.57;;
16442;SDS011;8331;51.654;14.376;2023-02-12T08:39:07;16.97;;;7.83;;
16442;SDS011;8331;51.654;14.376;2023-02-12T08:41:34;20.00;;;7.60;;
16442;SDS011;8331;51.654;14.376;2023-02-12T08:44:01;17.33;;;7.27;;
16442;SDS011;8331;51.654;14.376;2023-02-12T08:46:29;18.00;;;8.00;;
16442;SDS011;8331;51.654;14.376;2023-02-12T08:48:58;16.87;;;8.30;;
16442;SDS011;8331;51.654;14.376;2023-02-12T08:51:31;16.97;;;7.73;;
16442;SDS011;8331;51.654;14.376;2023-02-12T08:53:59;12.40;;;7.20;;
16442;SDS011;8331;51.654;14.376;2023-02-12T08:56:27;19.97;;;7.90;;
16442;SDS011;8331;51.654;14.376;2023-02-12T08:58:58;17.23;;;8.20;;
16442;SDS011;8331;51.654;14.376;2023-02-12T09:01:27;19.67;;;8.07;;
16442;SDS011;8331;51.654;14.376;2023-02-12T09:03:54;16.73;;;7.60;;
16442;SDS011;8331;51.654;14.376;2023-02-12T09:06:21;17.23;;;8.60;;
16442;SDS011;8331;51.654;14.376;2023-02-12T09:08:49;17.53;;;8.30;;
16442;SDS011;8331;51.654;14.376;2023-02-12T09:11:19;15.53;;;7.67;;
16442;SDS011;8331;51.654;14.376;2023-02-12T09:13:49;17.90;;;8.20;;
16442;SDS011;8331;51.654;14.376;2023-02-12T09:16:16;14.00;;;7.23;;
16442;SDS011;8331;51.654;14.376;2023-02-12T09:18:43;20.37;;;9.40;;
16442;SDS011;8331;51.654;14.376;2023-02-12T09:21:11;24.77;;;10.10;;
16442;SDS011;8331;51.654;14.376;2023-02-12T09:23:39;19.10;;;9.87;;
16442;SDS011;8331;51.654;14.376;2023-02-12T09:26:06;16.80;;;8.83;;
16442;SDS011;8331;51.654;14.376;2023-02-12T09:28:33;13.60;;;7.30;;
16442;SDS011;8331;51.654;14.376;2023-02-12T09:31:03;16.90;;;7.90;;
16442;SDS011;8331;51.654;14.376;2023-02-12T09:33:30;25.33;;;9.53;;
16442;SDS011;8331;51.654;14.376;2023-02-12T09:36:03;19.77;;;8.67;;
16442;SDS011;8331;51.654;14.376;2023-02-12T09:38:30;26.00;;;9.43;;
16442;SDS011;8331;51.654;14.376;2023-02-12T09:46:35;35.47;;;10.27;;
16442;SDS011;8331;51.654;14.376;2023-02-12T09:49:07;23.27;;;8.97;;
16442;SDS011;8331;51.654;14.376;2023-02-12T09:51:35;21.60;;;9.00;;
16442;SDS011;8331;51.654;14.376;2023-02-12T09:54:04;35.93;;;11.77;;
16442;SDS011;8331;51.654;14.376;2023-02-12T09:56:30;34.57;;;11.00;;
16442;SDS011;8331;51.654;14.376;2023-02-12T09:58:59;25.73;;;10.33;;
16442;SDS011;8331;51.654;14.376;2023-02-12T10:01:28;18.60;;;8.43;;
16442;SDS011;8331;51.654;14.376;2023-02-12T10:03:55;34.50;;;10.90;;
16442;SDS011;8331;51.654;14.376;2023-02-12T10:06:29;30.23;;;11.47;;
16442;SDS011;8331;51.654;14.376;2023-02-12T10:22:30;23.33;;;9.67;;
16442;SDS011;8331;51.654;14.376;2023-02-12T10:25:25;21.47;;;9.43;;
16442;SDS011;8331;51.654;14.376;2023-02-12T10:27:55;18.30;;;8.00;;
16442;SDS011;8331;51.654;14.376;2023-02-12T10:30:26;16.87;;;8.67;;
16442;SDS011;8331;51.654;14.376;2023-02-12T10:33:00;16.93;;;7.80;;
16442;SDS011;8331;51.654;14.376;2023-02-12T10:35:28;24.73;;;9.00;;
16442;SDS011;8331;51.654;14.376;2023-02-12T10:38:02;22.80;;;8.93;;
16442;SDS011;8331;51.654;14.376;2023-02-12T10:40:30;27.43;;;9.77;;
16442;SDS011;8331;51.654;14.376;2023-02-12T10:43:00;20.17;;;8.77;;
16442;SDS011;8331;51.654;14.376;2023-02-12T10:45:31;21.03;;;9.43;;
16442;SDS011;8331;51.654;14.376;2023-02-12T10:53:33;23.77;;;10.60;;
16442;SDS011;8331;51.654;14.376;2023-02-12T10:58:38;20.33;;;10.63;;
16442;SDS011;8331;51.654;14.376;2023-02-12T11:01:05;27.77;;;10.77;;
16442;SDS011;8331;51.654;14.376;2023-02-12T11:03:39;33.70;;;12.63;;
16442;SDS011;8331;51.654;14.376;2023-02-12T11:08:39;41.30;;;12.30;;
16442;SDS011;8331;51.654;14.376;2023-02-12T11:11:22;29.93;;;10.97;;
16442;SDS011;8331;51.654;14.376;2023-02-12T11:13:59;27.30;;;11.47;;
16442;SDS011;8331;51.654;14.376;2023-02-12T11:16:26;32.37;;;10.77;;
16442;SDS011;8331;51.654;14.376;2023-02-12T11:18:57;30.73;;;10.30;;
16442;SDS011;8331;51.654;14.376;2023-02-12T11:21:24;33.93;;;10.57;;
16442;SDS011;8331;51.654;14.376;2023-02-12T11:23:51;25.63;;;9.97;;
16442;SDS011;8331;51.654;14.376;2023-02-12T11:28:54;25.47;;;11.70;;
16442;SDS011;8331;51.654;14.376;2023-02-12T11:36:40;22.47;;;12.13;;
16442;SDS011;8331;51.654;14.376;2023-02-12T11:39:17;21.67;;;10.70;;
16442;SDS011;8331;51.654;14.376;2023-02-12T11:41:44;20.40;;;10.17;;
16442;SDS011;8331;51.654;14.376;2023-02-12T11:47:23;23.13;;;9.03;;
16442;SDS011;8331;51.654;14.376;2023-02-12T11:52:33;18.47;;;9.40;;
16442;SDS011;8331;51.654;14.376;2023-02-12T11:55:04;16.90;;;9.07;;
16442;SDS011;8331;51.654;14.376;2023-02-12T12:00:10;21.07;;;10.40;;
16442;SDS011;8331;51.654;14.376;2023-02-12T12:02:59;16.60;;;10.20;;
16442;SDS011;8331;51.654;14.376;2023-02-12T12:05:30;19.27;;;9.97;;
16442;SDS011;8331;51.654;14.376;2023-02-12T12:07:58;15.33;;;8.60;;
16442;SDS011;8331;51.654;14.376;2023-02-12T12:13:17;24.20;;;9.60;;
16442;SDS011;8331;51.654;14.376;2023-02-12T12:15:52;21.90;;;12.40;;
16442;SDS011;8331;51.654;14.376;2023-02-12T12:18:49;12.37;;;7.57;;
16442;SDS011;8331;51.654;14.376;2023-02-12T12:21:44;18.10;;;7.63;;
16442;SDS011;8331;51.654;14.376;2023-02-12T12:26:39;9.57;;;5.80;;
16442;SDS011;8331;51.654;14.376;2023-02-12T12:29:16;17.23;;;6.80;;
16442;SDS011;8331;51.654;14.376;2023-02-12T12:31:46;14.70;;;6.67;;
16442;SDS011;8331;51.654;14.376;2023-02-12T12:44:55;13.60;;;5.20;;
16442;SDS011;8331;51.654;14.376;2023-02-12T12:49:59;12.83;;;5.20;;
16442;SDS011;8331;51.654;14.376;2023-02-12T12:52:39;14.37;;;5.00;;
16442;SDS011;8331;51.654;14.376;2023-02-12T12:55:14;9.23;;;4.77;;
16442;SDS011;8331;51.654;14.376;2023-02-12T13:00:32;8.63;;;4.27;;
16442;SDS011;8331;51.654;14.376;2023-02-12T13:11:08;8.27;;;4.37;;
16442;SDS011;8331;51.654;14.376;2023-02-12T13:13:42;10.90;;;4.10;;
16442;SDS011;8331;51.654;14.376;2023-02-12T13:21:12;12.17;;;7.20;;
16442;SDS011;8331;51.654;14.376;2023-02-12T13:29:00;9.50;;;4.13;;
16442;SDS011;8331;51.654;14.376;2023-02-12T13:31:29;8.57;;;4.07;;
16442;SDS011;8331;51.654;14.376;2023-02-12T13:34:01;6.27;;;3.47;;
16442;SDS011;8331;51.654;14.376;2023-02-12T13:36:29;10.47;;;3.37;;
16442;SDS011;8331;51.654;14.376;2023-02-12T13:39:01;11.27;;;5.23;;
16442;SDS011;8331;51.654;14.376;2023-02-12T13:41:32;6.70;;;4.37;;
16442;SDS011;8331;51.654;14.376;2023-02-12T13:44:13;8.37;;;3.47;;
16442;SDS011;8331;51.654;14.376;2023-02-12T13:57:23;6.27;;;3.97;;
16442;SDS011;8331;51.654;14.376;2023-02-12T13:59:53;7.77;;;4.00;;
16442;SDS011;8331;51.654;14.376;2023-02-12T14:02:53;8.93;;;3.83;;
16442;SDS011;8331;51.654;14.376;2023-02-12T14:07:42;7.80;;;3.60;;
16442;SDS011;8331;51.654;14.376;2023-02-12T14:15:35;7.73;;;3.10;;
16442;SDS011;8331;51.654;14.376;2023-02-12T14:20:33;9.77;;;3.20;;
16442;SDS011;8331;51.654;14.376;2023-02-12T14:25:45;7.93;;;3.43;;
16442;SDS011;8331;51.654;14.376;2023-02-12T14:28:18;9.17;;;3.40;;
16442;SDS011;8331;51.654;14.376;2023-02-12T14:30:46;8.63;;;3.40;;
16442;SDS011;8331;51.654;14.376;2023-02-12T14:33:33;8.60;;;3.60;;
16442;SDS011;8331;51.654;14.376;2023-02-12T14:36:13;8.47;;;3.40;;
16442;SDS011;8331;51.654;14.376;2023-02-12T14:41:35;7.93;;;3.43;;
16442;SDS011;8331;51.654;14.376;2023-02-12T14:54:17;11.37;;;3.83;;
16442;SDS011;8331;51.654;14.376;2023-02-12T14:56:47;9.83;;;3.40;;
16442;SDS011;8331;51.654;14.376;2023-02-12T14:59:16;8.53;;;3.80;;
16442;SDS011;8331;51.654;14.376;2023-02-12T15:01:43;15.07;;;4.17;;
16442;SDS011;8331;51.654;14.376;2023-02-12T15:04:11;8.70;;;3.63;;
16442;SDS011;8331;51.654;14.376;2023-02-12T15:06:42;10.23;;;4.03;;
16442;SDS011;8331;51.654;14.376;2023-02-12T15:09:15;6.50;;;3.50;;
16442;SDS011;8331;51.654;14.376;2023-02-12T15:11:48;6.93;;;3.83;;
16442;SDS011;8331;51.654;14.376;2023-02-12T15:19:19;7.03;;;3.57;;
16442;SDS011;8331;51.654;14.376;2023-02-12T15:21:50;6.90;;;3.83;;
16442;SDS011;8331;51.654;14.376;2023-02-12T15:24:21;7.57;;;3.40;;
16442;SDS011;8331;51.654;14.376;2023-02-12T15:26:49;10.77;;;4.10;;
16442;SDS011;8331;51.654;14.376;2023-02-12T15:29:21;7.73;;;4.07;;
16442;SDS011;8331;51.654;14.376;2023-02-12T15:31:52;4.67;;;3.50;;
16442;SDS011;8331;51.654;14.376;2023-02-12T15:34:20;6.87;;;3.10;;
16442;SDS011;8331;51.654;14.376;2023-02-12T15:36:47;6.03;;;3.60;;
16442;SDS011;8331;51.654;14.376;2023-02-12T15:39:16;7.70;;;3.50;;
16442;SDS011;8331;51.654;14.376;2023-02-12T15:41:44;6.43;;;3.07;;
16442;SDS011;8331;51.654;14.376;2023-02-12T15:46:56;7.43;;;3.30;;
16442;SDS011;8331;51.654;14.376;2023-02-12T15:49:30;7.23;;;3.47;;
16442;SDS011;8331;51.654;14.376;2023-02-12T15:51:58;5.07;;;3.50;;
16442;SDS011;8331;51.654;14.376;2023-02-12T15:54:25;9.93;;;3.70;;
16442;SDS011;8331;51.654;14.376;2023-02-12T15:56:52;6.60;;;3.30;;
16442;SDS011;8331;51.654;14.376;2023-02-12T15:59:20;5.33;;;3.00;;
16442;SDS011;8331;51.654;14.376;2023-02-12T16:01:51;6.10;;;3.50;;
16442;SDS011;8331;51.654;14.376;2023-02-12T16:04:18;7.97;;;3.40;;
16442;SDS011;8331;51.654;14.376;2023-02-12T16:06:45;6.40;;;3.30;;
16442;SDS011;8331;51.654;14.376;2023-02-12T16:09:33;8.60;;;3.73;;
16442;SDS011;8331;51.654;14.376;2023-02-12T16:11:59;8.37;;;3.97;;
16442;SDS011;8331;51.654;14.376;2023-02-12T16:14:32;9.30;;;4.33;;
16442;SDS011;8331;51.654;14.376;2023-02-12T16:22:33;8.47;;;4.43;;
16442;SDS011;8331;51.654;14.376;2023-02-12T16:25:01;7.80;;;4.37;;
16442;SDS011;8331;51.654;14.376;2023-02-12T16:27:30;8.90;;;4.67;;
16442;SDS011;8331;51.654;14.376;2023-02-12T16:30:21;10.87;;;4.57;;
16442;SDS011;8331;51.654;14.376;2023-02-12T16:32:48;10.83;;;4.53;;
16442;SDS011;8331;51.654;14.376;2023-02-12T16:37:52;7.67;;;3.60;;
16442;SDS011;8331;51.654;14.376;2023-02-12T16:40:23;8.30;;;4.50;;
16442;SDS011;8331;51.654;14.376;2023-02-12T16:50:23;9.63;;;6.30;;
16442;SDS011;8331;51.654;14.376;2023-02-12T16:52:58;7.87;;;6.00;;
16442;SDS011;8331;51.654;14.376;2023-02-12T16:55:25;13.20;;;6.57;;
16442;SDS011;8331;51.654;14.376;2023-02-12T16:57:51;8.50;;;6.17;;
16442;SDS011;8331;51.654;14.376;2023-02-12T17:00:18;8.37;;;6.20;;
16442;SDS011;8331;51.654;14.376;2023-02-12T17:02:44;15.40;;;6.60;;
16442;SDS011;8331;51.654;14.376;2023-02-12T17:05:13;8.87;;;6.70;;
16442;SDS011;8331;51.654;14.376;2023-02-12T17:07:44;10.57;;;6.53;;
16442;SDS011;8331;51.654;14.376;2023-02-12T17:10:11;10.53;;;6.43;;
16442;SDS011;8331;51.654;14.376;2023-02-12T17:12:48;10.37;;;6.73;;
16442;SDS011;8331;51.654;14.376;2023-02-12T17:15:19;11.17;;;6.50;;
16442;SDS011;8331;51.654;14.376;2023-02-12T17:17:47;10.23;;;6.33;;
16442;SDS011;8331;51.654;14.376;2023-02-12T17:20:14;9.03;;;6.27;;
16442;SDS011;8331;51.654;14.376;2023-02-12T17:22:44;8.07;;;6.00;;
16442;SDS011;8331;51.654;14.376;2023-02-12T17:25:13;7.53;;;5.87;;
16442;SDS011;8331;51.654;14.376;2023-02-12T17:27:40;7.47;;;5.60;;
16442;SDS011;8331;51.654;14.376;2023-02-12T17:30:07;9.73;;;5.30;;
16442;SDS011;8331;51.654;14.376;2023-02-12T17:32:33;7.20;;;4.80;;
16442;SDS011;8331;51.654;14.376;2023-02-12T17:35:00;5.50;;;5.00;;
16442;SDS011;8331;51.654;14.376;2023-02-12T17:37:26;8.23;;;5.40;;
16442;SDS011;8331;51.654;14.376;2023-02-12T17:39:53;6.53;;;5.00;;
16442;SDS011;8331;51.654;14.376;2023-02-12T17:42:21;7.43;;;5.93;;
16442;SDS011;8331;51.654;14.376;2023-02-12T17:44:48;7.37;;;5.70;;
16442;SDS011;8331;51.654;14.376;2023-02-12T17:47:14;7.20;;;5.77;;
16442;SDS011;8331;51.654;14.376;2023-02-12T17:49:41;7.53;;;5.77;;
16442;SDS011;8331;51.654;14.376;2023-02-12T17:52:08;6.30;;;5.70;;
16442;SDS011;8331;51.654;14.376;2023-02-12T17:54:34;5.67;;;5.17;;
16442;SDS011;8331;51.654;14.376;2023-02-12T17:57:01;9.33;;;6.23;;
16442;SDS011;8331;51.654;14.376;2023-02-12T17:59:28;11.53;;;6.43;;
16442;SDS011;8331;51.654;14.376;2023-02-12T18:01:55;7.80;;;5.10;;